createdAt,value
2018-08-19T00:01:48.535Z,10.87
2018-08-19T00:04:16.105Z,8.73
2018-08-19T00:06:43.553Z,8.43
2018-08-19T00:09:12.809Z,10.80
2018-08-19T00:11:41.176Z,10.63
2018-08-19T00:14:21.896Z,11.03
2018-08-19T00:16:49.381Z,6.87
2018-08-19T00:19:16.816Z,9.50
2018-08-19T00:21:44.256Z,11.13
2018-08-19T00:24:11.716Z,9.57
2018-08-19T00:26:39.138Z,9.30
2018-08-19T00:29:06.581Z,9.83
2018-08-19T00:31:34.551Z,12.77
2018-08-19T00:34:02.013Z,15.80
2018-08-19T00:36:32.737Z,8.40
2018-08-19T00:39:00.190Z,10.03
2018-08-19T00:41:27.599Z,9.97
2018-08-19T00:43:55.069Z,10.40
2018-08-19T00:46:26.850Z,10.93
2018-08-19T00:48:54.360Z,8.70
2018-08-19T00:51:21.777Z,12.93
2018-08-19T00:53:49.237Z,11.63
2018-08-19T00:56:16.691Z,9.63
2018-08-19T00:58:44.106Z,10.57
2018-08-19T01:01:23.117Z,10.07
2018-08-19T01:03:53.757Z,14.63
2018-08-19T01:06:21.222Z,9.03
2018-08-19T01:08:48.644Z,13.37
2018-08-19T01:11:31.277Z,12.57
2018-08-19T01:13:58.745Z,10.33
2018-08-19T01:16:26.397Z,11.50
2018-08-19T01:18:59.452Z,11.23
2018-08-19T01:21:27.998Z,13.40
2018-08-19T01:23:56.245Z,9.67
2018-08-19T01:26:23.678Z,10.37
2018-08-19T01:28:53.553Z,15.00
2018-08-19T01:31:21.117Z,14.60
2018-08-19T01:33:48.507Z,12.90
2018-08-19T01:36:15.953Z,11.93
2018-08-19T01:38:43.337Z,14.77
2018-08-19T01:41:10.756Z,15.07
2018-08-19T01:43:38.223Z,12.53
2018-08-19T01:46:05.701Z,11.83
2018-08-19T01:48:33.153Z,10.47
2018-08-19T01:51:00.577Z,7.50
2018-08-19T01:53:28.028Z,12.60
2018-08-19T01:55:55.456Z,14.23
2018-08-19T01:58:22.934Z,14.00
2018-08-19T02:00:50.376Z,14.17
2018-08-19T02:03:17.758Z,12.13
2018-08-19T02:05:45.153Z,10.37
2018-08-19T02:08:12.614Z,13.97
2018-08-19T02:10:40.044Z,13.33
2018-08-19T02:13:07.546Z,12.43
2018-08-19T02:15:34.970Z,9.90
2018-08-19T02:18:03.664Z,12.50
2018-08-19T02:20:36.158Z,15.77
2018-08-19T02:23:05.045Z,12.10
2018-08-19T02:25:38.757Z,7.13
2018-08-19T02:28:07.550Z,13.73
2018-08-19T02:30:39.634Z,18.00
2018-08-19T02:33:07.035Z,15.93
2018-08-19T02:35:34.441Z,12.93
2018-08-19T02:38:01.873Z,11.63
2018-08-19T02:40:31.572Z,10.53
2018-08-19T02:42:59.089Z,12.07
2018-08-19T02:45:26.558Z,16.40
2018-08-19T02:47:53.998Z,13.93
2018-08-19T02:50:21.422Z,9.90
2018-08-19T02:52:48.893Z,12.60
2018-08-19T02:55:16.277Z,13.53
2018-08-19T02:57:43.679Z,10.17
2018-08-19T03:00:11.477Z,12.50
2018-08-19T03:02:40.060Z,8.93
2018-08-19T03:05:12.461Z,12.07
2018-08-19T03:07:40.254Z,11.53
2018-08-19T03:10:13.170Z,8.10
2018-08-19T03:12:41.092Z,8.90
2018-08-19T03:15:09.804Z,11.23
2018-08-19T03:17:37.324Z,11.93
2018-08-19T03:20:07.672Z,14.20
2018-08-19T03:22:35.151Z,9.93
2018-08-19T03:25:02.662Z,8.37
2018-08-19T03:27:31.320Z,8.67
2018-08-19T03:30:00.041Z,8.20
2018-08-19T03:32:27.502Z,12.00
2018-08-19T03:35:04.213Z,10.07
2018-08-19T03:37:31.721Z,13.13
2018-08-19T03:39:59.117Z,10.53
2018-08-19T03:42:26.510Z,8.13
2018-08-19T03:44:53.988Z,7.50
2018-08-19T03:47:21.389Z,11.43
2018-08-19T03:49:50.005Z,8.73
2018-08-19T03:52:18.348Z,8.23
2018-08-19T03:54:46.524Z,9.80
2018-08-19T03:57:17.736Z,13.03
2018-08-19T03:59:45.118Z,9.97
2018-08-19T04:02:12.575Z,11.23
2018-08-19T04:04:39.982Z,12.83
2018-08-19T04:07:07.421Z,10.17
2018-08-19T04:09:34.813Z,10.07
2018-08-19T04:12:09.170Z,14.70
2018-08-19T04:14:36.908Z,12.93
2018-08-19T04:17:05.605Z,8.00
2018-08-19T04:19:32.985Z,10.03
2018-08-19T04:22:02.186Z,10.57
2018-08-19T04:24:30.236Z,8.07
2018-08-19T04:26:57.958Z,8.30
2018-08-19T04:29:26.662Z,8.73
2018-08-19T04:31:54.544Z,7.60
2018-08-19T04:34:21.952Z,8.97
2018-08-19T04:36:49.332Z,7.03
2018-08-19T04:39:16.786Z,11.67
2018-08-19T04:41:44.215Z,13.07
2018-08-19T04:44:11.714Z,9.23
2018-08-19T04:46:39.125Z,9.50
2018-08-19T04:49:06.545Z,15.10
2018-08-19T04:51:33.986Z,8.40
2018-08-19T04:54:02.319Z,13.17
2018-08-19T04:56:29.977Z,9.83
2018-08-19T04:58:57.437Z,9.10
2018-08-19T05:01:24.837Z,11.43
2018-08-19T05:03:52.350Z,7.70
2018-08-19T05:06:19.769Z,9.67
2018-08-19T05:08:47.174Z,9.70
2018-08-19T05:11:14.580Z,9.10
2018-08-19T05:13:41.980Z,9.40
2018-08-19T05:16:09.456Z,10.67
2018-08-19T05:18:36.845Z,9.10
2018-08-19T05:21:10.068Z,7.80
2018-08-19T05:23:37.501Z,9.20
2018-08-19T05:26:05.053Z,11.53
2018-08-19T05:28:32.493Z,10.53
2018-08-19T05:30:59.899Z,9.07
2018-08-19T05:33:27.309Z,9.20
2018-08-19T05:35:54.754Z,10.60
2018-08-19T05:38:22.157Z,10.23
2018-08-19T05:40:55.241Z,10.43
2018-08-19T05:43:23.108Z,9.90
2018-08-19T05:45:53.553Z,10.27
2018-08-19T05:48:21.045Z,12.67
2018-08-19T05:50:48.420Z,9.10
2018-08-19T05:53:15.982Z,11.17
2018-08-19T05:55:43.969Z,10.07
2018-08-19T05:58:11.451Z,7.33
2018-08-19T06:00:43.122Z,10.23
2018-08-19T06:03:10.590Z,12.30
2018-08-19T06:05:38.356Z,13.47
2018-08-19T06:08:12.342Z,14.07
2018-08-19T06:10:40.162Z,11.57
2018-08-19T06:13:08.697Z,11.20
2018-08-19T06:15:36.192Z,10.27
2018-08-19T06:18:03.901Z,10.80
2018-08-19T06:20:31.916Z,13.37
2018-08-19T06:23:00.438Z,10.87
2018-08-19T06:25:27.908Z,10.67
2018-08-19T06:27:56.462Z,10.10
2018-08-19T06:30:23.930Z,10.43
2018-08-19T06:32:51.386Z,11.53
2018-08-19T06:35:18.876Z,11.90
2018-08-19T06:37:46.328Z,11.33
2018-08-19T06:40:15.683Z,8.93
2018-08-19T06:42:43.340Z,10.20
2018-08-19T06:45:11.565Z,7.07
2018-08-19T06:47:39.328Z,11.43
2018-08-19T06:50:17.485Z,11.30
2018-08-19T06:52:44.959Z,10.20
2018-08-19T06:55:13.297Z,9.23
2018-08-19T06:57:41.376Z,13.57
2018-08-19T07:00:14.880Z,7.73
2018-08-19T07:02:42.647Z,9.23
2018-08-19T07:05:10.156Z,8.90
2018-08-19T07:07:37.644Z,13.70
2018-08-19T07:10:05.363Z,9.70
2018-08-19T07:12:32.933Z,10.90
2018-08-19T07:15:00.365Z,9.60
2018-08-19T07:17:27.853Z,10.97
2018-08-19T07:19:55.313Z,10.60
2018-08-19T07:22:22.807Z,10.87
2018-08-19T07:24:50.218Z,12.10
2018-08-19T07:27:18.663Z,16.37
2018-08-19T07:29:46.196Z,7.23
2018-08-19T07:32:13.764Z,9.80
2018-08-19T07:34:41.310Z,9.73
2018-08-19T07:37:08.862Z,10.90
2018-08-19T07:39:43.274Z,12.17
2018-08-19T07:42:10.874Z,10.60
2018-08-19T07:44:38.368Z,9.33
2018-08-19T07:47:05.830Z,9.07
2018-08-19T07:49:33.240Z,7.50
2018-08-19T07:52:00.681Z,5.93
2018-08-19T07:54:28.145Z,4.77
2018-08-19T07:56:55.681Z,6.67
2018-08-19T07:59:23.122Z,4.90
2018-08-19T08:01:50.629Z,4.00
2018-08-19T08:04:20.881Z,6.13
2018-08-19T08:06:48.329Z,5.43
2018-08-19T08:09:15.821Z,4.20
2018-08-19T08:11:43.241Z,4.43
2018-08-19T08:14:10.670Z,6.50
2018-08-19T08:16:43.844Z,4.13
2018-08-19T08:19:11.252Z,4.43
2018-08-19T08:21:38.948Z,7.63
2018-08-19T08:24:07.915Z,5.77
2018-08-19T08:26:41.363Z,5.27
2018-08-19T08:29:08.921Z,7.33
2018-08-19T08:31:41.992Z,6.50
2018-08-19T08:34:09.499Z,7.87
2018-08-19T08:36:36.939Z,5.57
2018-08-19T08:39:06.101Z,4.03
2018-08-19T08:41:33.576Z,5.97
2018-08-19T08:44:00.985Z,8.20
2018-08-19T08:46:28.419Z,4.33
2018-08-19T08:48:55.841Z,6.73
2018-08-19T08:51:23.294Z,5.27
2018-08-19T08:53:50.728Z,6.07
2018-08-19T08:56:18.231Z,5.57
2018-08-19T08:58:45.676Z,6.73
2018-08-19T09:01:13.117Z,5.10
2018-08-19T09:03:40.570Z,5.50
2018-08-19T09:06:16.994Z,4.53
2018-08-19T09:08:44.475Z,6.93
2018-08-19T09:11:11.970Z,4.77
2018-08-19T09:13:39.395Z,5.27
2018-08-19T09:16:06.897Z,8.57
2018-08-19T09:18:34.356Z,8.73
2018-08-19T09:21:01.797Z,7.60
2018-08-19T09:23:29.270Z,10.93
2018-08-19T09:25:56.678Z,7.23
2018-08-19T09:28:24.100Z,8.93
2018-08-19T09:30:51.533Z,9.50
2018-08-19T09:33:18.915Z,8.27
2018-08-19T09:35:46.384Z,7.63
2018-08-19T09:38:17.215Z,8.37
2018-08-19T09:40:44.921Z,6.50
2018-08-19T09:43:12.607Z,10.60
2018-08-19T09:45:40.288Z,5.83
2018-08-19T09:48:08.261Z,9.37
2018-08-19T09:50:36.640Z,8.20
2018-08-19T09:53:11.041Z,6.90
2018-08-19T09:55:51.148Z,8.90
2018-08-19T09:58:19.916Z,9.27
2018-08-19T10:00:53.141Z,7.23
2018-08-19T10:03:20.585Z,7.57
2018-08-19T10:05:48.000Z,7.63
2018-08-19T10:08:15.457Z,6.50
2018-08-19T10:10:42.914Z,8.37
2018-08-19T10:13:10.380Z,7.70
2018-08-19T10:15:37.800Z,6.13
2018-08-19T10:18:07.361Z,8.80
2018-08-19T10:20:34.932Z,7.93
2018-08-19T10:23:02.506Z,6.50
2018-08-19T10:25:29.946Z,8.43
2018-08-19T10:27:57.372Z,7.43
2018-08-19T10:30:24.815Z,8.73
2018-08-19T10:33:04.176Z,6.30
2018-08-19T10:35:32.193Z,6.40
2018-08-19T10:38:00.645Z,5.67
2018-08-19T10:40:28.217Z,6.43
2018-08-19T10:43:07.953Z,5.73
2018-08-19T10:45:36.097Z,5.03
2018-08-19T10:48:04.098Z,5.53
2018-08-19T10:50:31.590Z,7.90
2018-08-19T10:52:59.000Z,7.70
2018-08-19T10:55:26.721Z,5.53
2018-08-19T10:57:54.497Z,9.47
2018-08-19T11:00:30.710Z,8.23
2018-08-19T11:03:11.137Z,8.00
2018-08-19T11:05:41.261Z,6.00
2018-08-19T11:08:09.673Z,8.27
2018-08-19T11:10:37.098Z,9.87
2018-08-19T11:13:04.837Z,8.33
2018-08-19T11:15:59.536Z,8.50
2018-08-19T11:18:33.261Z,6.43
2018-08-19T11:21:03.299Z,7.63
2018-08-19T11:23:30.751Z,7.87
2018-08-19T11:25:58.491Z,8.63
2018-08-19T11:28:36.185Z,7.03
2018-08-19T11:31:03.745Z,7.57
2018-08-19T11:33:37.994Z,8.20
2018-08-19T11:36:05.630Z,8.40
2018-08-19T11:38:33.010Z,8.93
2018-08-19T11:41:02.790Z,7.63
2018-08-19T11:43:31.985Z,8.03
2018-08-19T11:45:59.398Z,7.13
2018-08-19T11:48:26.812Z,8.13
2018-08-19T11:50:54.233Z,6.53
2018-08-19T11:53:21.641Z,9.17
2018-08-19T11:55:49.027Z,8.27
2018-08-19T11:58:32.761Z,5.00
2018-08-19T12:01:01.674Z,9.83
2018-08-19T12:03:31.621Z,10.90
2018-08-19T12:05:59.049Z,5.40
2018-08-19T12:08:26.442Z,5.60
2018-08-19T12:11:05.390Z,5.77
2018-08-19T12:13:32.792Z,8.83
2018-08-19T12:16:00.243Z,6.97
2018-08-19T12:18:27.632Z,6.93
2018-08-19T12:20:55.043Z,6.47
2018-08-19T12:23:22.420Z,8.07
2018-08-19T12:25:49.863Z,8.73
2018-08-19T12:28:17.255Z,6.57
2018-08-19T12:30:44.650Z,7.07
2018-08-19T12:33:20.633Z,9.00
2018-08-19T12:35:48.225Z,9.40
2018-08-19T12:38:15.628Z,6.27
2018-08-19T12:40:47.026Z,6.57
2018-08-19T12:43:14.846Z,5.40
2018-08-19T12:45:42.524Z,7.90
2018-08-19T12:48:09.977Z,9.70
2018-08-19T12:50:37.418Z,6.27
2018-08-19T12:53:05.364Z,6.43
2018-08-19T12:55:32.848Z,6.77
2018-08-19T12:58:08.218Z,7.50
2018-08-19T13:00:35.634Z,5.27
2018-08-19T13:03:03.117Z,8.10
2018-08-19T13:05:30.607Z,6.73
2018-08-19T13:07:58.094Z,8.73
2018-08-19T13:11:03.903Z,6.60
2018-08-19T13:13:31.721Z,6.80
2018-08-19T13:15:59.197Z,7.60
2018-08-19T13:18:32.283Z,8.73
2018-08-19T13:21:05.463Z,5.67
2018-08-19T13:23:33.205Z,9.07
2018-08-19T13:26:00.648Z,7.73
2018-08-19T13:28:28.108Z,9.33
2018-08-19T13:30:55.518Z,10.27
2018-08-19T13:33:23.964Z,8.37
2018-08-19T13:35:51.821Z,11.40
2018-08-19T13:38:31.374Z,13.27
2018-08-19T13:40:59.633Z,13.40
2018-08-19T13:43:27.053Z,12.10
2018-08-19T13:45:54.478Z,10.50
2018-08-19T13:48:21.946Z,13.67
2018-08-19T13:50:49.329Z,13.17
2018-08-19T13:53:16.822Z,12.73
2018-08-19T13:55:44.277Z,11.50
2018-08-19T13:58:11.702Z,11.80
2018-08-19T14:00:39.125Z,11.47
2018-08-19T14:03:06.566Z,15.30
2018-08-19T14:05:33.938Z,10.30
2018-08-19T14:08:01.344Z,9.40
2018-08-19T14:10:28.740Z,11.77
2018-08-19T14:12:56.154Z,7.00
2018-08-19T14:15:23.552Z,10.30
2018-08-19T14:17:51.004Z,15.47
2018-08-19T14:20:18.409Z,10.43
2018-08-19T14:22:45.821Z,10.80
2018-08-19T14:25:13.256Z,10.27
2018-08-19T14:27:40.669Z,11.17
2018-08-19T14:30:09.740Z,10.67
2018-08-19T14:32:38.709Z,12.53
2018-08-19T14:35:07.233Z,6.80
2018-08-19T14:37:34.690Z,9.80
2018-08-19T14:40:02.632Z,8.33
2018-08-19T14:42:29.997Z,8.27
2018-08-19T14:44:58.342Z,8.30
2018-08-19T14:47:26.112Z,8.33
2018-08-19T14:49:53.805Z,9.97
2018-08-19T14:52:21.258Z,11.47
2018-08-19T14:54:48.677Z,10.97
2018-08-19T14:57:16.122Z,12.03
2018-08-19T14:59:43.572Z,10.90
2018-08-19T15:02:11.024Z,11.03
2018-08-19T15:04:41.936Z,8.63
2018-08-19T15:07:09.388Z,7.83
2018-08-19T15:09:36.821Z,7.63
2018-08-19T15:12:11.930Z,8.87
2018-08-19T15:14:39.345Z,6.53
2018-08-19T15:17:07.297Z,12.40
2018-08-19T15:19:35.268Z,10.63
2018-08-19T15:22:02.844Z,9.17
2018-08-19T15:24:30.292Z,9.43
2018-08-19T15:26:57.678Z,8.27
2018-08-19T15:29:28.925Z,9.93
2018-08-19T15:31:57.488Z,7.97
2018-08-19T15:34:24.859Z,12.70
2018-08-19T15:36:52.325Z,11.57
2018-08-19T15:39:19.816Z,10.83
2018-08-19T15:41:47.581Z,9.20
2018-08-19T15:44:15.115Z,7.87
2018-08-19T15:46:43.329Z,9.20
2018-08-19T15:49:10.826Z,10.47
2018-08-19T15:51:38.448Z,8.97
2018-08-19T15:54:06.923Z,9.50
2018-08-19T15:56:34.513Z,8.63
2018-08-19T15:59:03.835Z,9.57
2018-08-19T16:01:32.253Z,9.03
2018-08-19T16:04:05.444Z,10.63
2018-08-19T16:06:32.901Z,9.07
2018-08-19T16:09:00.414Z,10.83
2018-08-19T16:11:27.927Z,8.70
2018-08-19T16:13:55.373Z,7.33
2018-08-19T16:16:23.667Z,8.07
2018-08-19T16:18:52.778Z,10.97
2018-08-19T16:21:20.155Z,16.43
2018-08-19T16:23:47.636Z,11.27
2018-08-19T16:26:15.240Z,8.27
2018-08-19T16:28:42.697Z,15.03
2018-08-19T16:31:10.205Z,11.80
2018-08-19T16:33:37.911Z,7.37
2018-08-19T16:36:05.333Z,10.90
2018-08-19T16:38:32.721Z,9.90
2018-08-19T16:41:00.155Z,8.13
2018-08-19T16:43:27.549Z,8.47
2018-08-19T16:45:55.020Z,7.07
2018-08-19T16:48:22.464Z,11.40
2018-08-19T16:50:49.964Z,9.30
2018-08-19T16:53:17.323Z,9.43
2018-08-19T16:55:44.742Z,12.03
2018-08-19T16:58:12.163Z,12.13
2018-08-19T17:00:39.683Z,11.00
2018-08-19T17:03:23.481Z,9.57
2018-08-19T17:05:50.889Z,8.17
2018-08-19T17:08:18.260Z,7.70
2018-08-19T17:10:45.696Z,8.80
2018-08-19T17:13:13.112Z,8.33
2018-08-19T17:15:40.589Z,10.20
2018-08-19T17:18:08.001Z,13.70
2018-08-19T17:20:35.405Z,10.00
2018-08-19T17:23:02.856Z,12.53
2018-08-19T17:25:30.266Z,12.77
2018-08-19T17:28:02.294Z,13.40
2018-08-19T17:30:29.721Z,11.70
2018-08-19T17:33:01.810Z,11.37
2018-08-19T17:35:29.180Z,15.53
2018-08-19T17:37:56.602Z,9.83
2018-08-19T17:40:24.276Z,11.37
2018-08-19T17:42:51.730Z,10.57
2018-08-19T17:45:19.235Z,10.83
2018-08-19T17:47:46.713Z,10.13
2018-08-19T17:50:18.778Z,13.07
2018-08-19T17:52:46.261Z,13.27
2018-08-19T17:55:13.661Z,13.70
2018-08-19T17:57:41.193Z,13.50
2018-08-19T18:00:08.688Z,19.10
2018-08-19T18:02:36.079Z,13.87
2018-08-19T18:05:03.622Z,13.30
2018-08-19T18:07:31.020Z,20.70
2018-08-19T18:09:59.197Z,15.23
2018-08-19T18:12:26.629Z,13.67
2018-08-19T18:14:54.289Z,11.27
2018-08-19T18:17:21.693Z,19.20
2018-08-19T18:19:49.110Z,15.47
2018-08-19T18:22:18.611Z,16.80
2018-08-19T18:24:50.674Z,17.17
2018-08-19T18:27:18.497Z,14.93
2018-08-19T18:29:46.833Z,15.37
2018-08-19T18:32:14.270Z,18.10
2018-08-19T18:34:41.864Z,18.70
2018-08-19T18:37:10.888Z,15.67
2018-08-19T18:39:41.881Z,14.53
2018-08-19T18:42:09.306Z,16.53
2018-08-19T18:44:36.712Z,16.47
2018-08-19T18:47:04.793Z,17.77
2018-08-19T18:49:32.211Z,20.47
2018-08-19T18:52:04.297Z,21.70
2018-08-19T18:54:31.669Z,24.73
2018-08-19T18:57:02.057Z,18.37
2018-08-19T18:59:29.492Z,24.77
2018-08-19T19:01:59.070Z,24.67
2018-08-19T19:04:26.542Z,21.47
2018-08-19T19:06:54.097Z,19.60
2018-08-19T19:09:22.132Z,21.37
2018-08-19T19:11:51.466Z,16.60
2018-08-19T19:14:19.953Z,22.37
2018-08-19T19:16:48.645Z,23.23
2018-08-19T19:19:16.071Z,27.00
2018-08-19T19:21:48.120Z,21.57
2018-08-19T19:24:18.459Z,20.10
2018-08-19T19:26:45.998Z,28.00
2018-08-19T19:29:17.236Z,22.63
2018-08-19T19:31:44.633Z,19.73
2018-08-19T19:34:14.526Z,19.80
2018-08-19T19:36:41.947Z,22.60
2018-08-19T19:39:09.369Z,17.57
2018-08-19T19:41:36.790Z,16.73
2018-08-19T19:44:22.430Z,23.30
2018-08-19T19:46:49.944Z,15.77
2018-08-19T19:49:17.385Z,17.70
2018-08-19T19:52:04.774Z,15.23
2018-08-19T19:54:33.436Z,13.80
2018-08-19T19:57:01.309Z,13.73
2018-08-19T19:59:33.061Z,16.07
2018-08-19T20:02:00.605Z,16.37
2018-08-19T20:04:27.960Z,14.03
2018-08-19T20:06:55.380Z,14.00
2018-08-19T20:09:22.814Z,13.20
2018-08-19T20:11:50.259Z,12.77
2018-08-19T20:14:17.705Z,16.53
2018-08-19T20:16:45.130Z,14.50
2018-08-19T20:19:12.570Z,13.77
2018-08-19T20:21:40.014Z,18.70
2018-08-19T20:24:07.429Z,16.20
2018-08-19T20:26:34.865Z,20.07
2018-08-19T20:29:03.521Z,20.40
2018-08-19T20:31:31.020Z,19.03
2018-08-19T20:33:58.496Z,16.43
2018-08-19T20:36:26.081Z,19.40
2018-08-19T20:38:53.522Z,23.57
2018-08-19T20:41:21.025Z,20.47
2018-08-19T20:43:48.432Z,18.60
2018-08-19T20:46:16.011Z,21.90
2018-08-19T20:48:45.776Z,18.77
2018-08-19T20:51:13.601Z,23.43
2018-08-19T20:53:41.001Z,22.77
2018-08-19T20:56:08.425Z,22.30
2018-08-19T20:58:35.918Z,22.50
2018-08-19T21:01:03.480Z,26.00
2018-08-19T21:03:31.383Z,25.17
2018-08-19T21:05:58.799Z,25.13
2018-08-19T21:08:26.381Z,18.93
2018-08-19T21:10:53.773Z,18.07
2018-08-19T21:13:21.177Z,21.30
2018-08-19T21:15:52.181Z,22.57
2018-08-19T21:18:19.570Z,18.67
2018-08-19T21:20:46.952Z,23.57
2018-08-19T21:23:14.381Z,18.00
2018-08-19T21:25:48.850Z,29.57
2018-08-19T21:28:17.190Z,22.10
2018-08-19T21:30:44.584Z,31.00
2018-08-19T21:33:11.989Z,27.07
2018-08-19T21:35:45.024Z,23.97
2018-08-19T21:38:12.493Z,21.47
2018-08-19T21:40:39.925Z,22.67
2018-08-19T21:43:08.942Z,23.07
2018-08-19T21:45:36.965Z,24.63
2018-08-19T21:48:08.084Z,21.17
2018-08-19T21:50:35.515Z,25.97
2018-08-19T21:53:05.292Z,26.40
2018-08-19T21:55:37.950Z,20.90
2018-08-19T21:58:05.914Z,18.53
2018-08-19T22:00:37.084Z,19.10
2018-08-19T22:03:12.864Z,18.00
2018-08-19T22:05:40.269Z,20.50
2018-08-19T22:08:07.724Z,25.77
2018-08-19T22:10:35.141Z,27.83
2018-08-19T22:13:04.279Z,18.30
2018-08-19T22:15:36.766Z,17.47
2018-08-19T22:18:05.118Z,19.13
2018-08-19T22:20:32.662Z,20.17
2018-08-19T22:23:00.129Z,21.97
2018-08-19T22:25:27.536Z,23.07
2018-08-19T22:27:54.916Z,28.77
2018-08-19T22:30:24.038Z,23.13
2018-08-19T22:32:51.457Z,18.73
2018-08-19T22:35:18.887Z,20.97
2018-08-19T22:37:46.332Z,16.80
2018-08-19T22:40:14.554Z,18.73
2018-08-19T22:42:41.982Z,21.93
2018-08-19T22:45:09.398Z,24.47
2018-08-19T22:47:36.809Z,20.77
2018-08-19T22:50:04.302Z,20.30
2018-08-19T22:52:31.721Z,22.20
2018-08-19T22:54:59.313Z,23.20
2018-08-19T22:57:27.470Z,30.23
2018-08-19T22:59:54.881Z,24.13
2018-08-19T23:02:22.646Z,26.60
2018-08-19T23:04:50.110Z,17.03
2018-08-19T23:07:17.552Z,18.07
2018-08-19T23:09:44.997Z,17.20
2018-08-19T23:12:12.409Z,20.73
2018-08-19T23:14:51.260Z,21.13
2018-08-19T23:17:18.732Z,15.50
2018-08-19T23:19:48.481Z,23.00
2018-08-19T23:22:15.912Z,23.90
2018-08-19T23:24:43.326Z,19.07
2018-08-19T23:27:10.772Z,18.57
2018-08-19T23:29:38.162Z,20.80
2018-08-19T23:32:05.656Z,21.30
2018-08-19T23:34:33.119Z,21.67
2018-08-19T23:37:00.533Z,26.17
2018-08-19T23:39:28.052Z,23.60
2018-08-19T23:41:55.480Z,28.80
2018-08-19T23:44:22.918Z,21.77
2018-08-19T23:46:50.372Z,25.67
2018-08-19T23:49:17.833Z,22.73
2018-08-19T23:51:45.273Z,25.53
2018-08-19T23:54:12.672Z,24.03
2018-08-19T23:56:40.061Z,27.43
2018-08-19T23:59:07.509Z,25.23
